sensor_id;sensor_type;location;lat;lon;timestamp;temperature;humidity
14188;DHT22;7175;51.978;5.330;2023-03-15T00:00:55;3.40;99.90
14188;DHT22;7175;51.978;5.330;2023-03-15T00:03:24;3.40;99.90
14188;DHT22;7175;51.978;5.330;2023-03-15T00:05:52;3.40;99.90
14188;DHT22;7175;51.978;5.330;2023-03-15T00:08:20;3.40;99.90
14188;DHT22;7175;51.978;5.330;2023-03-15T00:10:48;3.40;99.90
14188;DHT22;7175;51.978;5.330;2023-03-15T00:13:16;3.40;99.90
14188;DHT22;7175;51.978;5.330;2023-03-15T00:15:46;3.40;99.90
14188;DHT22;7175;51.978;5.330;2023-03-15T00:18:17;3.40;99.90
14188;DHT22;7175;51.978;5.330;2023-03-15T00:20:47;3.40;99.90
14188;DHT22;7175;51.978;5.330;2023-03-15T00:23:15;3.40;99.90
14188;DHT22;7175;51.978;5.330;2023-03-15T00:25:45;3.30;99.90
14188;DHT22;7175;51.978;5.330;2023-03-15T00:28:14;3.30;99.90
14188;DHT22;7175;51.978;5.330;2023-03-15T00:30:42;3.30;99.90
14188;DHT22;7175;51.978;5.330;2023-03-15T00:33:11;3.20;99.90
14188;DHT22;7175;51.978;5.330;2023-03-15T00:35:42;3.20;99.90
14188;DHT22;7175;51.978;5.330;2023-03-15T00:38:12;3.20;99.90
14188;DHT22;7175;51.978;5.330;2023-03-15T00:40:40;3.10;99.90
14188;DHT22;7175;51.978;5.330;2023-03-15T00:43:08;3.00;99.90
14188;DHT22;7175;51.978;5.330;2023-03-15T00:45:37;3.00;99.90
14188;DHT22;7175;51.978;5.330;2023-03-15T00:48:05;2.90;99.90
14188;DHT22;7175;51.978;5.330;2023-03-15T00:50:33;2.90;99.90
14188;DHT22;7175;51.978;5.330;2023-03-15T00:53:01;2.80;99.90
14188;DHT22;7175;51.978;5.330;2023-03-15T00:55:31;2.80;99.90
14188;DHT22;7175;51.978;5.330;2023-03-15T00:57:59;2.80;99.90
14188;DHT22;7175;51.978;5.330;2023-03-15T01:00:27;2.80;99.90
14188;DHT22;7175;51.978;5.330;2023-03-15T01:02:55;2.80;99.90
14188;DHT22;7175;51.978;5.330;2023-03-15T01:05:23;2.80;99.90
14188;DHT22;7175;51.978;5.330;2023-03-15T01:07:52;2.70;99.90
14188;DHT22;7175;51.978;5.330;2023-03-15T01:10:20;2.80;99.90
14188;DHT22;7175;51.978;5.330;2023-03-15T01:12:49;2.80;99.90
14188;DHT22;7175;51.978;5.330;2023-03-15T01:15:17;2.80;99.90
14188;DHT22;7175;51.978;5.330;2023-03-15T01:17:45;2.80;99.90
14188;DHT22;7175;51.978;5.330;2023-03-15T01:20:14;2.80;99.90
14188;DHT22;7175;51.978;5.330;2023-03-15T01:22:43;2.70;99.90
14188;DHT22;7175;51.978;5.330;2023-03-15T01:25:11;2.80;99.90
14188;DHT22;7175;51.978;5.330;2023-03-15T01:27:39;2.90;99.90
14188;DHT22;7175;51.978;5.330;2023-03-15T01:30:10;2.80;99.90
14188;DHT22;7175;51.978;5.330;2023-03-15T01:32:38;2.80;99.90
14188;DHT22;7175;51.978;5.330;2023-03-15T01:35:07;2.90;99.90
14188;DHT22;7175;51.978;5.330;2023-03-15T01:37:35;2.90;99.90
14188;DHT22;7175;51.978;5.330;2023-03-15T01:40:04;2.90;99.90
14188;DHT22;7175;51.978;5.330;2023-03-15T01:42:32;2.90;99.90
14188;DHT22;7175;51.978;5.330;2023-03-15T01:45:00;2.90;99.90
14188;DHT22;7175;51.978;5.330;2023-03-15T01:47:30;3.00;99.90
14188;DHT22;7175;51.978;5.330;2023-03-15T01:50:03;3.00;99.90
14188;DHT22;7175;51.978;5.330;2023-03-15T01:52:34;3.00;99.90
14188;DHT22;7175;51.978;5.330;2023-03-15T01:55:06;3.00;99.90
14188;DHT22;7175;51.978;5.330;2023-03-15T01:57:38;3.00;99.90
14188;DHT22;7175;51.978;5.330;2023-03-15T02:00:10;3.10;99.90
14188;DHT22;7175;51.978;5.330;2023-03-15T02:02:44;3.10;99.90
14188;DHT22;7175;51.978;5.330;2023-03-15T02:05:17;3.10;99.90
14188;DHT22;7175;51.978;5.330;2023-03-15T02:07:47;3.10;99.90
14188;DHT22;7175;51.978;5.330;2023-03-15T02:10:17;3.00;99.90
14188;DHT22;7175;51.978;5.330;2023-03-15T02:12:50;3.10;99.90
14188;DHT22;7175;51.978;5.330;2023-03-15T02:15:19;3.10;99.90
14188;DHT22;7175;51.978;5.330;2023-03-15T02:17:48;3.00;99.90
14188;DHT22;7175;51.978;5.330;2023-03-15T02:20:25;3.00;99.90
14188;DHT22;7175;51.978;5.330;2023-03-15T02:22:57;3.00;99.90
14188;DHT22;7175;51.978;5.330;2023-03-15T02:25:35;2.90;99.90
14188;DHT22;7175;51.978;5.330;2023-03-15T02:28:09;2.90;99.90
14188;DHT22;7175;51.978;5.330;2023-03-15T02:30:38;2.80;99.90
14188;DHT22;7175;51.978;5.330;2023-03-15T02:33:09;2.80;99.90
14188;DHT22;7175;51.978;5.330;2023-03-15T02:35:39;2.80;99.90
14188;DHT22;7175;51.978;5.330;2023-03-15T02:38:07;2.80;99.90
14188;DHT22;7175;51.978;5.330;2023-03-15T02:40:35;2.80;99.90
14188;DHT22;7175;51.978;5.330;2023-03-15T02:43:07;2.70;99.90
14188;DHT22;7175;51.978;5.330;2023-03-15T02:45:37;2.70;99.90
14188;DHT22;7175;51.978;5.330;2023-03-15T02:48:06;2.70;99.90
14188;DHT22;7175;51.978;5.330;2023-03-15T02:50:36;2.70;99.90
14188;DHT22;7175;51.978;5.330;2023-03-15T02:53:05;2.70;99.90
14188;DHT22;7175;51.978;5.330;2023-03-15T02:55:33;2.70;99.90
14188;DHT22;7175;51.978;5.330;2023-03-15T02:58:01;2.60;99.90
14188;DHT22;7175;51.978;5.330;2023-03-15T03:00:30;2.50;99.90
14188;DHT22;7175;51.978;5.330;2023-03-15T03:02:59;2.50;99.90
14188;DHT22;7175;51.978;5.330;2023-03-15T03:05:27;2.40;99.90
14188;DHT22;7175;51.978;5.330;2023-03-15T03:07:55;2.40;99.90
14188;DHT22;7175;51.978;5.330;2023-03-15T03:10:24;2.40;99.90
14188;DHT22;7175;51.978;5.330;2023-03-15T03:12:52;2.40;99.90
14188;DHT22;7175;51.978;5.330;2023-03-15T03:15:21;2.40;99.90
14188;DHT22;7175;51.978;5.330;2023-03-15T03:17:50;2.40;99.90
14188;DHT22;7175;51.978;5.330;2023-03-15T03:20:20;2.40;99.90
14188;DHT22;7175;51.978;5.330;2023-03-15T03:22:48;2.40;99.90
14188;DHT22;7175;51.978;5.330;2023-03-15T03:25:16;2.40;99.90
14188;DHT22;7175;51.978;5.330;2023-03-15T03:27:44;2.30;99.90
14188;DHT22;7175;51.978;5.330;2023-03-15T03:30:13;2.30;99.90
14188;DHT22;7175;51.978;5.330;2023-03-15T03:32:41;2.20;99.90
14188;DHT22;7175;51.978;5.330;2023-03-15T03:35:11;2.20;99.90
14188;DHT22;7175;51.978;5.330;2023-03-15T03:37:41;2.20;99.90
14188;DHT22;7175;51.978;5.330;2023-03-15T03:40:11;2.20;99.90
14188;DHT22;7175;51.978;5.330;2023-03-15T03:42:39;2.10;99.90
14188;DHT22;7175;51.978;5.330;2023-03-15T03:45:08;2.10;99.90
14188;DHT22;7175;51.978;5.330;2023-03-15T03:47:36;2.10;99.90
14188;DHT22;7175;51.978;5.330;2023-03-15T03:50:05;2.10;99.90
14188;DHT22;7175;51.978;5.330;2023-03-15T03:52:35;2.10;99.90
14188;DHT22;7175;51.978;5.330;2023-03-15T03:55:03;2.00;99.90
14188;DHT22;7175;51.978;5.330;2023-03-15T03:57:32;2.00;99.90
14188;DHT22;7175;51.978;5.330;2023-03-15T04:00:00;2.00;99.90
14188;DHT22;7175;51.978;5.330;2023-03-15T04:02:28;2.00;99.90
14188;DHT22;7175;51.978;5.330;2023-03-15T04:04:56;2.00;99.90
14188;DHT22;7175;51.978;5.330;2023-03-15T04:07:25;1.90;99.90
14188;DHT22;7175;51.978;5.330;2023-03-15T04:09:55;1.90;99.90
14188;DHT22;7175;51.978;5.330;2023-03-15T04:12:23;1.90;99.90
14188;DHT22;7175;51.978;5.330;2023-03-15T04:14:51;1.90;99.90
14188;DHT22;7175;51.978;5.330;2023-03-15T04:17:19;1.80;99.90
14188;DHT22;7175;51.978;5.330;2023-03-15T04:19:48;1.80;99.90
14188;DHT22;7175;51.978;5.330;2023-03-15T04:22:16;1.80;99.90
14188;DHT22;7175;51.978;5.330;2023-03-15T04:24:44;1.80;99.90
14188;DHT22;7175;51.978;5.330;2023-03-15T04:27:13;1.80;99.90
14188;DHT22;7175;51.978;5.330;2023-03-15T04:29:42;1.80;99.90
14188;DHT22;7175;51.978;5.330;2023-03-15T04:32:10;1.70;99.90
14188;DHT22;7175;51.978;5.330;2023-03-15T04:34:38;1.70;99.90
14188;DHT22;7175;51.978;5.330;2023-03-15T04:37:07;1.70;99.90
14188;DHT22;7175;51.978;5.330;2023-03-15T04:39:35;1.70;99.90
14188;DHT22;7175;51.978;5.330;2023-03-15T04:42:05;1.80;99.90
14188;DHT22;7175;51.978;5.330;2023-03-15T04:44:34;1.80;99.90
14188;DHT22;7175;51.978;5.330;2023-03-15T04:47:03;1.80;99.90
14188;DHT22;7175;51.978;5.330;2023-03-15T04:49:31;1.80;99.90
14188;DHT22;7175;51.978;5.330;2023-03-15T04:51:59;1.80;99.90
14188;DHT22;7175;51.978;5.330;2023-03-15T04:54:27;1.80;99.90
14188;DHT22;7175;51.978;5.330;2023-03-15T04:56:55;1.80;99.90
14188;DHT22;7175;51.978;5.330;2023-03-15T04:59:24;1.80;99.90
14188;DHT22;7175;51.978;5.330;2023-03-15T05:01:53;1.80;99.90
14188;DHT22;7175;51.978;5.330;2023-03-15T05:04:21;1.70;99.90
14188;DHT22;7175;51.978;5.330;2023-03-15T05:06:49;1.70;99.90
14188;DHT22;7175;51.978;5.330;2023-03-15T05:09:17;1.70;99.90
14188;DHT22;7175;51.978;5.330;2023-03-15T05:11:46;1.70;99.90
14188;DHT22;7175;51.978;5.330;2023-03-15T05:14:14;1.70;99.90
14188;DHT22;7175;51.978;5.330;2023-03-15T05:16:42;1.70;99.90
14188;DHT22;7175;51.978;5.330;2023-03-15T05:19:11;1.60;99.90
14188;DHT22;7175;51.978;5.330;2023-03-15T05:21:39;1.60;99.90
14188;DHT22;7175;51.978;5.330;2023-03-15T05:24:07;1.60;99.90
14188;DHT22;7175;51.978;5.330;2023-03-15T05:26:35;1.50;99.90
14188;DHT22;7175;51.978;5.330;2023-03-15T05:29:03;1.50;99.90
14188;DHT22;7175;51.978;5.330;2023-03-15T05:31:32;1.50;99.90
14188;DHT22;7175;51.978;5.330;2023-03-15T05:34:03;1.40;99.90
14188;DHT22;7175;51.978;5.330;2023-03-15T05:36:33;1.40;99.90
14188;DHT22;7175;51.978;5.330;2023-03-15T05:39:01;1.40;99.90
14188;DHT22;7175;51.978;5.330;2023-03-15T05:41:30;1.40;99.90
14188;DHT22;7175;51.978;5.330;2023-03-15T05:43:59;1.30;99.90
14188;DHT22;7175;51.978;5.330;2023-03-15T05:46:28;1.30;99.90
14188;DHT22;7175;51.978;5.330;2023-03-15T05:48:57;1.30;99.90
14188;DHT22;7175;51.978;5.330;2023-03-15T05:51:25;1.30;99.90
14188;DHT22;7175;51.978;5.330;2023-03-15T05:53:55;1.40;99.90
14188;DHT22;7175;51.978;5.330;2023-03-15T05:56:23;1.30;99.90
14188;DHT22;7175;51.978;5.330;2023-03-15T05:58:51;1.30;99.90
14188;DHT22;7175;51.978;5.330;2023-03-15T06:01:19;1.30;99.90
14188;DHT22;7175;51.978;5.330;2023-03-15T06:03:47;1.40;99.90
14188;DHT22;7175;51.978;5.330;2023-03-15T06:06:15;1.30;99.90
14188;DHT22;7175;51.978;5.330;2023-03-15T06:08:44;1.40;99.90
14188;DHT22;7175;51.978;5.330;2023-03-15T06:11:13;1.40;99.90
14188;DHT22;7175;51.978;5.330;2023-03-15T06:13:41;1.40;99.90
14188;DHT22;7175;51.978;5.330;2023-03-15T06:16:09;1.40;99.90
14188;DHT22;7175;51.978;5.330;2023-03-15T06:18:37;1.40;99.90
14188;DHT22;7175;51.978;5.330;2023-03-15T06:21:06;1.30;99.90
14188;DHT22;7175;51.978;5.330;2023-03-15T06:23:34;1.30;99.90
14188;DHT22;7175;51.978;5.330;2023-03-15T06:26:02;1.30;99.90
14188;DHT22;7175;51.978;5.330;2023-03-15T06:28:32;1.30;99.90
14188;DHT22;7175;51.978;5.330;2023-03-15T06:31:05;1.40;99.90
14188;DHT22;7175;51.978;5.330;2023-03-15T06:33:34;1.40;99.90
14188;DHT22;7175;51.978;5.330;2023-03-15T06:36:02;1.40;99.90
14188;DHT22;7175;51.978;5.330;2023-03-15T06:38:30;1.40;99.90
14188;DHT22;7175;51.978;5.330;2023-03-15T06:40:59;1.40;99.90
14188;DHT22;7175;51.978;5.330;2023-03-15T06:43:27;1.40;99.90
14188;DHT22;7175;51.978;5.330;2023-03-15T06:45:57;1.50;99.90
14188;DHT22;7175;51.978;5.330;2023-03-15T06:48:26;1.50;99.90
14188;DHT22;7175;51.978;5.330;2023-03-15T06:50:54;1.50;99.90
14188;DHT22;7175;51.978;5.330;2023-03-15T06:53:22;1.60;99.90
14188;DHT22;7175;51.978;5.330;2023-03-15T06:55:50;1.70;99.90
14188;DHT22;7175;51.978;5.330;2023-03-15T06:58:18;1.70;99.90
14188;DHT22;7175;51.978;5.330;2023-03-15T07:00:46;1.80;99.90
14188;DHT22;7175;51.978;5.330;2023-03-15T07:03:17;1.90;99.90
14188;DHT22;7175;51.978;5.330;2023-03-15T07:05:47;2.00;99.90
14188;DHT22;7175;51.978;5.330;2023-03-15T07:08:18;2.00;99.90
14188;DHT22;7175;51.978;5.330;2023-03-15T07:10:46;2.10;99.90
14188;DHT22;7175;51.978;5.330;2023-03-15T07:13:17;2.20;99.90
14188;DHT22;7175;51.978;5.330;2023-03-15T07:15:49;2.30;99.90
14188;DHT22;7175;51.978;5.330;2023-03-15T07:18:19;2.50;99.90
14188;DHT22;7175;51.978;5.330;2023-03-15T07:20:54;2.40;99.90
14188;DHT22;7175;51.978;5.330;2023-03-15T07:23:23;2.40;99.90
14188;DHT22;7175;51.978;5.330;2023-03-15T07:25:51;2.40;99.90
14188;DHT22;7175;51.978;5.330;2023-03-15T07:28:23;2.30;99.90
14188;DHT22;7175;51.978;5.330;2023-03-15T07:30:52;2.30;99.90
14188;DHT22;7175;51.978;5.330;2023-03-15T07:33:23;2.30;99.90
14188;DHT22;7175;51.978;5.330;2023-03-15T07:35:52;2.50;99.90
14188;DHT22;7175;51.978;5.330;2023-03-15T07:38:21;2.60;99.90
14188;DHT22;7175;51.978;5.330;2023-03-15T07:40:49;2.80;99.90
14188;DHT22;7175;51.978;5.330;2023-03-15T07:43:18;2.90;99.90
14188;DHT22;7175;51.978;5.330;2023-03-15T07:45:46;3.00;99.90
14188;DHT22;7175;51.978;5.330;2023-03-15T07:48:14;3.10;99.90
14188;DHT22;7175;51.978;5.330;2023-03-15T07:50:44;3.30;99.90
14188;DHT22;7175;51.978;5.330;2023-03-15T07:53:12;3.40;99.90
14188;DHT22;7175;51.978;5.330;2023-03-15T07:55:40;3.60;99.90
14188;DHT22;7175;51.978;5.330;2023-03-15T07:58:08;3.70;99.90
14188;DHT22;7175;51.978;5.330;2023-03-15T08:00:37;3.80;99.90
14188;DHT22;7175;51.978;5.330;2023-03-15T08:03:05;3.90;99.90
14188;DHT22;7175;51.978;5.330;2023-03-15T08:05:33;3.90;99.90
14188;DHT22;7175;51.978;5.330;2023-03-15T08:08:03;4.10;99.90
14188;DHT22;7175;51.978;5.330;2023-03-15T08:10:31;4.30;99.90
14188;DHT22;7175;51.978;5.330;2023-03-15T08:12:59;4.50;99.90
14188;DHT22;7175;51.978;5.330;2023-03-15T08:15:28;4.70;99.90
14188;DHT22;7175;51.978;5.330;2023-03-15T08:17:56;4.70;99.90
14188;DHT22;7175;51.978;5.330;2023-03-15T08:20:25;4.90;99.90
14188;DHT22;7175;51.978;5.330;2023-03-15T08:22:56;5.10;99.90
14188;DHT22;7175;51.978;5.330;2023-03-15T08:25:25;5.10;99.90
14188;DHT22;7175;51.978;5.330;2023-03-15T08:27:54;5.10;99.90
14188;DHT22;7175;51.978;5.330;2023-03-15T08:30:22;5.30;99.90
14188;DHT22;7175;51.978;5.330;2023-03-15T08:32:50;5.50;99.90
14188;DHT22;7175;51.978;5.330;2023-03-15T08:35:20;5.40;99.90
14188;DHT22;7175;51.978;5.330;2023-03-15T08:37:49;5.60;99.90
14188;DHT22;7175;51.978;5.330;2023-03-15T08:40:20;5.60;99.90
14188;DHT22;7175;51.978;5.330;2023-03-15T08:42:52;5.60;99.90
14188;DHT22;7175;51.978;5.330;2023-03-15T08:45:20;5.80;99.90
14188;DHT22;7175;51.978;5.330;2023-03-15T08:47:52;5.90;99.90
14188;DHT22;7175;51.978;5.330;2023-03-15T08:50:21;6.00;99.90
14188;DHT22;7175;51.978;5.330;2023-03-15T08:52:49;6.10;99.90
14188;DHT22;7175;51.978;5.330;2023-03-15T08:55:18;6.10;99.90
14188;DHT22;7175;51.978;5.330;2023-03-15T08:57:46;6.30;99.90
14188;DHT22;7175;51.978;5.330;2023-03-15T09:00:17;6.50;99.90
14188;DHT22;7175;51.978;5.330;2023-03-15T09:02:49;6.60;99.90
14188;DHT22;7175;51.978;5.330;2023-03-15T09:05:19;6.50;99.90
14188;DHT22;7175;51.978;5.330;2023-03-15T09:07:48;6.80;99.90
14188;DHT22;7175;51.978;5.330;2023-03-15T09:10:19;6.70;99.90
14188;DHT22;7175;51.978;5.330;2023-03-15T09:12:49;6.70;99.90
14188;DHT22;7175;51.978;5.330;2023-03-15T09:15:20;6.90;99.90
14188;DHT22;7175;51.978;5.330;2023-03-15T09:17:49;7.00;99.90
14188;DHT22;7175;51.978;5.330;2023-03-15T09:20:18;7.40;99.90
14188;DHT22;7175;51.978;5.330;2023-03-15T09:22:53;7.60;99.90
14188;DHT22;7175;51.978;5.330;2023-03-15T09:25:22;7.50;99.90
14188;DHT22;7175;51.978;5.330;2023-03-15T09:27:51;7.40;99.90
14188;DHT22;7175;51.978;5.330;2023-03-15T09:30:21;7.30;99.90
14188;DHT22;7175;51.978;5.330;2023-03-15T09:32:49;7.20;99.90
14188;DHT22;7175;51.978;5.330;2023-03-15T09:35:18;7.50;99.90
14188;DHT22;7175;51.978;5.330;2023-03-15T09:37:47;7.80;99.90
14188;DHT22;7175;51.978;5.330;2023-03-15T09:40:20;7.60;99.90
14188;DHT22;7175;51.978;5.330;2023-03-15T09:43:07;8.00;99.90
14188;DHT22;7175;51.978;5.330;2023-03-15T09:45:50;7.80;99.90
14188;DHT22;7175;51.978;5.330;2023-03-15T09:48:26;7.90;99.90
14188;DHT22;7175;51.978;5.330;2023-03-15T09:51:03;8.10;99.90
14188;DHT22;7175;51.978;5.330;2023-03-15T09:53:36;7.90;99.90
14188;DHT22;7175;51.978;5.330;2023-03-15T09:56:18;7.90;99.90
14188;DHT22;7175;51.978;5.330;2023-03-15T09:58:48;8.20;99.90
14188;DHT22;7175;51.978;5.330;2023-03-15T10:01:24;8.00;99.90
14188;DHT22;7175;51.978;5.330;2023-03-15T10:03:56;8.10;99.90
14188;DHT22;7175;51.978;5.330;2023-03-15T10:06:28;8.00;99.90
14188;DHT22;7175;51.978;5.330;2023-03-15T10:09:11;8.30;99.90
14188;DHT22;7175;51.978;5.330;2023-03-15T10:11:46;8.40;99.90
14188;DHT22;7175;51.978;5.330;2023-03-15T10:14:25;8.50;99.90
14188;DHT22;7175;51.978;5.330;2023-03-15T10:16:57;8.60;99.90
14188;DHT22;7175;51.978;5.330;2023-03-15T10:19:33;8.80;99.90
14188;DHT22;7175;51.978;5.330;2023-03-15T10:22:10;8.60;99.90
14188;DHT22;7175;51.978;5.330;2023-03-15T10:24:45;8.80;99.90
14188;DHT22;7175;51.978;5.330;2023-03-15T10:27:18;9.00;99.90
14188;DHT22;7175;51.978;5.330;2023-03-15T10:29:49;8.70;99.90
14188;DHT22;7175;51.978;5.330;2023-03-15T10:32:22;9.00;99.90
14188;DHT22;7175;51.978;5.330;2023-03-15T10:34:53;9.20;99.90
14188;DHT22;7175;51.978;5.330;2023-03-15T10:37:22;9.10;99.90
14188;DHT22;7175;51.978;5.330;2023-03-15T10:39:54;9.20;99.90
14188;DHT22;7175;51.978;5.330;2023-03-15T10:42:28;9.40;99.90
14188;DHT22;7175;51.978;5.330;2023-03-15T10:44:57;9.80;99.90
14188;DHT22;7175;51.978;5.330;2023-03-15T10:47:27;9.40;99.90
14188;DHT22;7175;51.978;5.330;2023-03-15T10:49:56;9.50;99.90
14188;DHT22;7175;51.978;5.330;2023-03-15T10:52:27;9.80;99.90
14188;DHT22;7175;51.978;5.330;2023-03-15T10:54:59;9.90;99.90
14188;DHT22;7175;51.978;5.330;2023-03-15T10:57:34;9.60;99.90
14188;DHT22;7175;51.978;5.330;2023-03-15T11:00:17;9.80;99.90
14188;DHT22;7175;51.978;5.330;2023-03-15T11:03:00;10.20;99.90
14188;DHT22;7175;51.978;5.330;2023-03-15T11:05:30;10.10;99.90
14188;DHT22;7175;51.978;5.330;2023-03-15T11:08:00;10.00;99.90
14188;DHT22;7175;51.978;5.330;2023-03-15T11:10:33;9.90;99.90
14188;DHT22;7175;51.978;5.330;2023-03-15T11:13:13;9.50;99.90
14188;DHT22;7175;51.978;5.330;2023-03-15T11:15:55;9.60;99.90
14188;DHT22;7175;51.978;5.330;2023-03-15T11:18:33;9.80;99.90
14188;DHT22;7175;51.978;5.330;2023-03-15T11:21:03;9.70;99.90
14188;DHT22;7175;51.978;5.330;2023-03-15T11:23:35;9.90;99.90
14188;DHT22;7175;51.978;5.330;2023-03-15T11:26:05;9.90;99.90
14188;DHT22;7175;51.978;5.330;2023-03-15T11:28:36;10.30;99.90
14188;DHT22;7175;51.978;5.330;2023-03-15T11:31:06;10.50;99.90
14188;DHT22;7175;51.978;5.330;2023-03-15T11:33:44;10.70;99.90
14188;DHT22;7175;51.978;5.330;2023-03-15T11:36:17;10.60;99.90
14188;DHT22;7175;51.978;5.330;2023-03-15T11:38:46;10.60;99.90
14188;DHT22;7175;51.978;5.330;2023-03-15T11:41:23;10.40;99.90
14188;DHT22;7175;51.978;5.330;2023-03-15T11:43:58;10.70;99.90
14188;DHT22;7175;51.978;5.330;2023-03-15T11:46:32;10.80;99.90
14188;DHT22;7175;51.978;5.330;2023-03-15T11:49:10;10.70;99.90
14188;DHT22;7175;51.978;5.330;2023-03-15T11:51:41;10.70;99.90
14188;DHT22;7175;51.978;5.330;2023-03-15T11:54:12;10.80;99.90
14188;DHT22;7175;51.978;5.330;2023-03-15T11:56:52;10.90;99.90
14188;DHT22;7175;51.978;5.330;2023-03-15T11:59:24;10.90;99.90
14188;DHT22;7175;51.978;5.330;2023-03-15T12:01:58;10.90;99.90
14188;DHT22;7175;51.978;5.330;2023-03-15T12:04:41;11.00;99.90
14188;DHT22;7175;51.978;5.330;2023-03-15T12:07:56;10.80;99.90
14188;DHT22;7175;51.978;5.330;2023-03-15T12:10:33;10.80;99.90
14188;DHT22;7175;51.978;5.330;2023-03-15T12:13:21;11.20;99.90
14188;DHT22;7175;51.978;5.330;2023-03-15T12:15:50;11.20;99.90
14188;DHT22;7175;51.978;5.330;2023-03-15T12:18:23;11.10;99.90
14188;DHT22;7175;51.978;5.330;2023-03-15T12:21:05;11.40;99.90
14188;DHT22;7175;51.978;5.330;2023-03-15T12:23:40;11.20;99.90
14188;DHT22;7175;51.978;5.330;2023-03-15T12:26:21;11.30;99.90
14188;DHT22;7175;51.978;5.330;2023-03-15T12:28:52;11.30;99.90
14188;DHT22;7175;51.978;5.330;2023-03-15T12:31:47;11.40;99.90
14188;DHT22;7175;51.978;5.330;2023-03-15T12:34:27;11.40;99.90
14188;DHT22;7175;51.978;5.330;2023-03-15T12:37:03;11.40;99.90
14188;DHT22;7175;51.978;5.330;2023-03-15T12:39:40;11.70;99.90
14188;DHT22;7175;51.978;5.330;2023-03-15T12:45:44;11.70;99.90
14188;DHT22;7175;51.978;5.330;2023-03-15T12:48:23;11.90;99.90
14188;DHT22;7175;51.978;5.330;2023-03-15T12:50:54;11.80;99.90
14188;DHT22;7175;51.978;5.330;2023-03-15T12:53:33;12.20;99.90
14188;DHT22;7175;51.978;5.330;2023-03-15T12:56:32;12.10;99.90
14188;DHT22;7175;51.978;5.330;2023-03-15T12:59:09;12.00;99.90
14188;DHT22;7175;51.978;5.330;2023-03-15T13:01:40;11.80;99.90
14188;DHT22;7175;51.978;5.330;2023-03-15T13:04:10;12.00;99.90
14188;DHT22;7175;51.978;5.330;2023-03-15T13:06:49;11.90;99.90
14188;DHT22;7175;51.978;5.330;2023-03-15T13:09:34;12.00;99.90
14188;DHT22;7175;51.978;5.330;2023-03-15T13:12:11;12.00;99.90
14188;DHT22;7175;51.978;5.330;2023-03-15T13:14:47;12.40;99.90
14188;DHT22;7175;51.978;5.330;2023-03-15T13:17:27;12.40;99.90
14188;DHT22;7175;51.978;5.330;2023-03-15T13:20:22;12.30;99.90
14188;DHT22;7175;51.978;5.330;2023-03-15T13:22:58;12.10;99.90
14188;DHT22;7175;51.978;5.330;2023-03-15T13:25:34;12.10;99.90
14188;DHT22;7175;51.978;5.330;2023-03-15T13:28:06;12.20;99.90
14188;DHT22;7175;51.978;5.330;2023-03-15T13:30:39;12.40;99.90
14188;DHT22;7175;51.978;5.330;2023-03-15T13:33:18;11.70;99.90
14188;DHT22;7175;51.978;5.330;2023-03-15T13:35:52;12.00;99.90
14188;DHT22;7175;51.978;5.330;2023-03-15T13:38:25;12.50;99.90
14188;DHT22;7175;51.978;5.330;2023-03-15T13:40:55;12.40;99.90
14188;DHT22;7175;51.978;5.330;2023-03-15T13:43:25;12.20;99.90
14188;DHT22;7175;51.978;5.330;2023-03-15T13:45:56;12.20;99.90
14188;DHT22;7175;51.978;5.330;2023-03-15T13:48:29;12.50;99.90
14188;DHT22;7175;51.978;5.330;2023-03-15T13:51:02;12.20;99.90
14188;DHT22;7175;51.978;5.330;2023-03-15T13:53:33;12.20;99.90
14188;DHT22;7175;51.978;5.330;2023-03-15T13:56:18;12.10;99.90
14188;DHT22;7175;51.978;5.330;2023-03-15T13:58:49;12.20;99.90
14188;DHT22;7175;51.978;5.330;2023-03-15T14:01:18;11.80;99.90
14188;DHT22;7175;51.978;5.330;2023-03-15T14:03:55;11.50;99.90
14188;DHT22;7175;51.978;5.330;2023-03-15T14:06:25;11.70;99.90
14188;DHT22;7175;51.978;5.330;2023-03-15T14:08:59;11.80;99.90
14188;DHT22;7175;51.978;5.330;2023-03-15T14:11:34;11.80;99.90
14188;DHT22;7175;51.978;5.330;2023-03-15T14:14:19;11.60;99.90
14188;DHT22;7175;51.978;5.330;2023-03-15T14:16:49;11.40;99.90
14188;DHT22;7175;51.978;5.330;2023-03-15T14:19:34;11.10;99.90
14188;DHT22;7175;51.978;5.330;2023-03-15T14:22:11;11.10;99.90
14188;DHT22;7175;51.978;5.330;2023-03-15T14:24:43;11.10;99.90
14188;DHT22;7175;51.978;5.330;2023-03-15T14:27:16;11.10;99.90
14188;DHT22;7175;51.978;5.330;2023-03-15T14:29:48;10.90;99.90
14188;DHT22;7175;51.978;5.330;2023-03-15T14:32:25;10.80;99.90
14188;DHT22;7175;51.978;5.330;2023-03-15T14:35:00;10.80;99.90
14188;DHT22;7175;51.978;5.330;2023-03-15T14:37:34;10.90;99.90
14188;DHT22;7175;51.978;5.330;2023-03-15T14:40:21;10.60;99.90
14188;DHT22;7175;51.978;5.330;2023-03-15T14:42:51;10.70;99.90
14188;DHT22;7175;51.978;5.330;2023-03-15T14:45:19;10.60;99.30
14188;DHT22;7175;51.978;5.330;2023-03-15T14:47:50;10.60;99.90
14188;DHT22;7175;51.978;5.330;2023-03-15T14:50:25;10.60;99.90
14188;DHT22;7175;51.978;5.330;2023-03-15T14:52:55;10.60;99.90
14188;DHT22;7175;51.978;5.330;2023-03-15T14:55:28;10.40;99.90
14188;DHT22;7175;51.978;5.330;2023-03-15T14:58:02;10.40;99.90
14188;DHT22;7175;51.978;5.330;2023-03-15T15:00:31;10.50;99.90
14188;DHT22;7175;51.978;5.330;2023-03-15T15:03:00;10.50;99.90
14188;DHT22;7175;51.978;5.330;2023-03-15T15:05:31;10.20;99.80
14188;DHT22;7175;51.978;5.330;2023-03-15T15:08:02;10.10;99.90
14188;DHT22;7175;51.978;5.330;2023-03-15T15:10:32;10.20;99.20
14188;DHT22;7175;51.978;5.330;2023-03-15T15:13:02;10.20;99.90
14188;DHT22;7175;51.978;5.330;2023-03-15T15:15:33;10.10;98.40
14188;DHT22;7175;51.978;5.330;2023-03-15T15:18:21;10.10;99.90
14188;DHT22;7175;51.978;5.330;2023-03-15T15:20:50;10.00;98.40
14188;DHT22;7175;51.978;5.330;2023-03-15T15:23:23;10.00;99.90
14188;DHT22;7175;51.978;5.330;2023-03-15T15:25:54;10.00;99.90
14188;DHT22;7175;51.978;5.330;2023-03-15T15:28:25;10.10;99.80
14188;DHT22;7175;51.978;5.330;2023-03-15T15:31:03;10.00;99.30
14188;DHT22;7175;51.978;5.330;2023-03-15T15:33:31;9.90;99.90
14188;DHT22;7175;51.978;5.330;2023-03-15T15:36:00;10.00;99.90
14188;DHT22;7175;51.978;5.330;2023-03-15T15:38:31;9.90;99.80
14188;DHT22;7175;51.978;5.330;2023-03-15T15:41:05;9.90;99.30
14188;DHT22;7175;51.978;5.330;2023-03-15T15:43:34;9.80;99.90
14188;DHT22;7175;51.978;5.330;2023-03-15T15:46:03;9.80;99.90
14188;DHT22;7175;51.978;5.330;2023-03-15T15:48:33;9.80;99.90
14188;DHT22;7175;51.978;5.330;2023-03-15T15:51:01;9.70;99.90
14188;DHT22;7175;51.978;5.330;2023-03-15T15:53:31;9.60;98.60
14188;DHT22;7175;51.978;5.330;2023-03-15T15:55:59;9.60;99.60
14188;DHT22;7175;51.978;5.330;2023-03-15T15:58:28;9.70;99.50
14188;DHT22;7175;51.978;5.330;2023-03-15T16:00:58;9.60;99.40
14188;DHT22;7175;51.978;5.330;2023-03-15T16:03:26;9.70;99.70
14188;DHT22;7175;51.978;5.330;2023-03-15T16:05:55;9.60;99.90
14188;DHT22;7175;51.978;5.330;2023-03-15T16:08:23;9.60;98.40
14188;DHT22;7175;51.978;5.330;2023-03-15T16:10:52;9.50;99.20
14188;DHT22;7175;51.978;5.330;2023-03-15T16:13:20;9.50;99.90
14188;DHT22;7175;51.978;5.330;2023-03-15T16:15:48;9.50;98.00
14188;DHT22;7175;51.978;5.330;2023-03-15T16:18:18;9.50;97.50
14188;DHT22;7175;51.978;5.330;2023-03-15T16:20:46;9.50;99.80
14188;DHT22;7175;51.978;5.330;2023-03-15T16:23:17;9.40;98.90
14188;DHT22;7175;51.978;5.330;2023-03-15T16:25:48;9.40;99.60